sensor_id;sensor_type;location;lat;lon;timestamp;pressure;altitude;pressure_sealevel;temperature;humidity
67818;BME280;54614;47.576;7.524;2022-11-02T00:00:45;99226.28;;;28.76;38.31
67818;BME280;54614;47.576;7.524;2022-11-02T00:03:11;99211.00;;;28.64;38.13
67818;BME280;54614;47.576;7.524;2022-11-02T00:05:37;99212.59;;;28.46;38.68
67818;BME280;54614;47.576;7.524;2022-11-02T00:08:03;99203.59;;;28.52;38.54
67818;BME280;54614;47.576;7.524;2022-11-02T00:10:29;99209.34;;;28.38;38.64
67818;BME280;54614;47.576;7.524;2022-11-02T00:12:56;99213.44;;;28.47;38.64
67818;BME280;54614;47.576;7.524;2022-11-02T00:15:27;99215.81;;;28.37;38.98
67818;BME280;54614;47.576;7.524;2022-11-02T00:18:04;99214.44;;;28.28;38.88
67818;BME280;54614;47.576;7.524;2022-11-02T00:20:30;99212.94;;;28.32;38.55
67818;BME280;54614;47.576;7.524;2022-11-02T00:22:59;99209.28;;;28.19;38.98
67818;BME280;54614;47.576;7.524;2022-11-02T00:25:27;99213.56;;;28.34;39.02
67818;BME280;54614;47.576;7.524;2022-11-02T00:27:54;99217.31;;;28.33;38.70
67818;BME280;54614;47.576;7.524;2022-11-02T00:30:20;99212.06;;;28.38;38.78
67818;BME280;54614;47.576;7.524;2022-11-02T00:32:46;99211.84;;;28.39;38.79
67818;BME280;54614;47.576;7.524;2022-11-02T00:35:12;99207.16;;;28.21;39.24
67818;BME280;54614;47.576;7.524;2022-11-02T00:37:38;99206.91;;;28.54;38.42
67818;BME280;54614;47.576;7.524;2022-11-02T00:40:05;99212.25;;;28.61;38.41
67818;BME280;54614;47.576;7.524;2022-11-02T00:42:31;99209.81;;;28.78;38.09
67818;BME280;54614;47.576;7.524;2022-11-02T00:44:57;99215.25;;;28.53;38.26
67818;BME280;54614;47.576;7.524;2022-11-02T00:47:22;99214.66;;;28.26;38.83
67818;BME280;54614;47.576;7.524;2022-11-02T00:49:48;99212.66;;;28.40;38.46
67818;BME280;54614;47.576;7.524;2022-11-02T00:52:14;99204.22;;;28.30;38.70
67818;BME280;54614;47.576;7.524;2022-11-02T00:54:40;99218.19;;;28.51;38.31
67818;BME280;54614;47.576;7.524;2022-11-02T00:57:06;99220.47;;;28.30;39.15
67818;BME280;54614;47.576;7.524;2022-11-02T00:59:32;99222.34;;;28.29;39.08
67818;BME280;54614;47.576;7.524;2022-11-02T01:01:57;99222.59;;;28.46;38.47
67818;BME280;54614;47.576;7.524;2022-11-02T01:04:23;99217.84;;;28.41;38.50
67818;BME280;54614;47.576;7.524;2022-11-02T01:06:49;99221.09;;;28.50;38.39
67818;BME280;54614;47.576;7.524;2022-11-02T01:09:15;99217.50;;;28.56;38.41
67818;BME280;54614;47.576;7.524;2022-11-02T01:11:41;99212.88;;;28.38;39.03
67818;BME280;54614;47.576;7.524;2022-11-02T01:14:08;99203.50;;;28.41;38.94
67818;BME280;54614;47.576;7.524;2022-11-02T01:16:34;99208.56;;;28.55;38.77
67818;BME280;54614;47.576;7.524;2022-11-02T01:19:01;99209.00;;;28.52;38.09
67818;BME280;54614;47.576;7.524;2022-11-02T01:21:27;99203.56;;;28.77;38.19
67818;BME280;54614;47.576;7.524;2022-11-02T01:23:54;99195.53;;;28.46;38.20
67818;BME280;54614;47.576;7.524;2022-11-02T01:26:20;99199.31;;;28.45;38.57
67818;BME280;54614;47.576;7.524;2022-11-02T01:28:46;99194.41;;;28.35;38.84
67818;BME280;54614;47.576;7.524;2022-11-02T01:31:12;99181.03;;;28.40;38.78
67818;BME280;54614;47.576;7.524;2022-11-02T01:33:45;99194.16;;;28.37;38.54
67818;BME280;54614;47.576;7.524;2022-11-02T01:36:13;99192.84;;;28.46;38.66
67818;BME280;54614;47.576;7.524;2022-11-02T01:38:39;99196.16;;;28.48;38.59
67818;BME280;54614;47.576;7.524;2022-11-02T01:41:06;99197.06;;;28.60;38.28
67818;BME280;54614;47.576;7.524;2022-11-02T01:43:35;99188.38;;;28.33;38.54
67818;BME280;54614;47.576;7.524;2022-11-02T01:48:59;99198.41;;;28.51;38.60
67818;BME280;54614;47.576;7.524;2022-11-02T01:52:04;99182.91;;;28.40;38.57
67818;BME280;54614;47.576;7.524;2022-11-02T01:54:38;99183.94;;;28.39;38.53
67818;BME280;54614;47.576;7.524;2022-11-02T01:57:09;99176.44;;;28.41;38.69
67818;BME280;54614;47.576;7.524;2022-11-02T02:00:09;99165.78;;;28.64;38.17
67818;BME280;54614;47.576;7.524;2022-11-02T02:02:46;99175.19;;;28.62;38.44
67818;BME280;54614;47.576;7.524;2022-11-02T02:05:15;99174.97;;;28.63;38.17
67818;BME280;54614;47.576;7.524;2022-11-02T02:07:43;99181.88;;;28.59;38.29
67818;BME280;54614;47.576;7.524;2022-11-02T02:10:11;99182.31;;;28.56;38.24
67818;BME280;54614;47.576;7.524;2022-11-02T02:12:40;99168.28;;;28.66;38.26
67818;BME280;54614;47.576;7.524;2022-11-02T02:15:07;99180.59;;;28.62;38.25
67818;BME280;54614;47.576;7.524;2022-11-02T02:18:05;99182.72;;;28.60;38.15
67818;BME280;54614;47.576;7.524;2022-11-02T02:21:14;99182.63;;;28.66;38.27
67818;BME280;54614;47.576;7.524;2022-11-02T02:30:10;99183.59;;;28.53;38.64
67818;BME280;54614;47.576;7.524;2022-11-02T02:33:01;99176.16;;;28.49;38.32
67818;BME280;54614;47.576;7.524;2022-11-02T02:38:47;99179.53;;;28.44;38.58
67818;BME280;54614;47.576;7.524;2022-11-02T02:41:26;99182.13;;;28.33;38.30
67818;BME280;54614;47.576;7.524;2022-11-02T02:43:57;99187.69;;;28.63;38.27
67818;BME280;54614;47.576;7.524;2022-11-02T02:46:31;99179.03;;;28.72;38.08
67818;BME280;54614;47.576;7.524;2022-11-02T02:49:00;99179.34;;;28.64;37.95
67818;BME280;54614;47.576;7.524;2022-11-02T02:51:34;99180.41;;;28.38;38.41
67818;BME280;54614;47.576;7.524;2022-11-02T02:54:05;99189.94;;;28.66;38.13
67818;BME280;54614;47.576;7.524;2022-11-02T02:56:41;99189.41;;;28.57;38.02
67818;BME280;54614;47.576;7.524;2022-11-02T03:01:47;99175.41;;;28.60;38.16
67818;BME280;54614;47.576;7.524;2022-11-02T03:04:14;99180.22;;;28.58;37.92
67818;BME280;54614;47.576;7.524;2022-11-02T03:06:51;99183.56;;;28.35;38.73
67818;BME280;54614;47.576;7.524;2022-11-02T03:09:41;99192.06;;;28.39;38.64
67818;BME280;54614;47.576;7.524;2022-11-02T03:17:50;99174.50;;;28.48;38.02
67818;BME280;54614;47.576;7.524;2022-11-02T03:23:44;99187.09;;;28.36;38.67
67818;BME280;54614;47.576;7.524;2022-11-02T03:26:28;99179.72;;;28.24;39.03
67818;BME280;54614;47.576;7.524;2022-11-02T03:29:12;99197.91;;;28.11;39.87
67818;BME280;54614;47.576;7.524;2022-11-02T03:31:42;99193.03;;;28.19;40.02
67818;BME280;54614;47.576;7.524;2022-11-02T03:34:36;99196.03;;;28.36;39.91
67818;BME280;54614;47.576;7.524;2022-11-02T03:37:26;99197.34;;;28.52;39.73
67818;BME280;54614;47.576;7.524;2022-11-02T03:40:23;99191.56;;;28.48;39.76
67818;BME280;54614;47.576;7.524;2022-11-02T03:42:52;99202.88;;;28.64;39.08
67818;BME280;54614;47.576;7.524;2022-11-02T03:45:23;99206.50;;;28.76;39.07
67818;BME280;54614;47.576;7.524;2022-11-02T03:48:00;99213.19;;;28.73;38.92
67818;BME280;54614;47.576;7.524;2022-11-02T03:50:26;99204.84;;;28.75;38.97
67818;BME280;54614;47.576;7.524;2022-11-02T03:53:14;99216.09;;;28.72;38.86
67818;BME280;54614;47.576;7.524;2022-11-02T03:55:49;99211.38;;;28.67;39.14
67818;BME280;54614;47.576;7.524;2022-11-02T03:58:17;99214.22;;;28.72;38.82
67818;BME280;54614;47.576;7.524;2022-11-02T04:00:57;99208.66;;;28.67;38.94
67818;BME280;54614;47.576;7.524;2022-11-02T04:03:24;99212.97;;;28.75;38.83
67818;BME280;54614;47.576;7.524;2022-11-02T04:05:50;99223.94;;;28.80;38.64
67818;BME280;54614;47.576;7.524;2022-11-02T04:08:23;99220.63;;;28.78;38.53
67818;BME280;54614;47.576;7.524;2022-11-02T04:10:54;99225.72;;;28.68;39.07
67818;BME280;54614;47.576;7.524;2022-11-02T04:13:38;99227.78;;;28.72;38.67
67818;BME280;54614;47.576;7.524;2022-11-02T04:16:22;99229.13;;;28.81;38.59
67818;BME280;54614;47.576;7.524;2022-11-02T04:18:48;99223.91;;;28.86;38.64
67818;BME280;54614;47.576;7.524;2022-11-02T04:21:33;99227.09;;;28.77;38.49
67818;BME280;54614;47.576;7.524;2022-11-02T04:23:59;99233.47;;;28.89;38.14
67818;BME280;54614;47.576;7.524;2022-11-02T04:26:43;99219.69;;;28.91;38.60
67818;BME280;54614;47.576;7.524;2022-11-02T04:29:10;99230.31;;;28.67;38.82
67818;BME280;54614;47.576;7.524;2022-11-02T04:31:36;99229.31;;;28.86;38.61
67818;BME280;54614;47.576;7.524;2022-11-02T04:34:01;99231.19;;;28.86;38.48
67818;BME280;54614;47.576;7.524;2022-11-02T04:36:31;99232.03;;;29.05;38.32
67818;BME280;54614;47.576;7.524;2022-11-02T04:38:57;99238.31;;;28.80;38.72
67818;BME280;54614;47.576;7.524;2022-11-02T04:41:24;99234.44;;;29.31;37.53
67818;BME280;54614;47.576;7.524;2022-11-02T04:44:10;99234.13;;;28.60;37.89
67818;BME280;54614;47.576;7.524;2022-11-02T04:46:39;99234.91;;;28.42;37.77
67818;BME280;54614;47.576;7.524;2022-11-02T04:49:06;99238.69;;;28.41;38.36
67818;BME280;54614;47.576;7.524;2022-11-02T04:51:32;99245.63;;;28.55;38.02
67818;BME280;54614;47.576;7.524;2022-11-02T04:53:59;99249.38;;;28.54;38.03
67818;BME280;54614;47.576;7.524;2022-11-02T04:56:27;99248.16;;;28.75;37.58
67818;BME280;54614;47.576;7.524;2022-11-02T04:58:57;99262.75;;;28.74;37.57
67818;BME280;54614;47.576;7.524;2022-11-02T05:01:27;99247.91;;;28.58;37.34
67818;BME280;54614;47.576;7.524;2022-11-02T05:03:54;99255.56;;;28.61;37.37
67818;BME280;54614;47.576;7.524;2022-11-02T05:06:23;99255.41;;;28.56;37.43
67818;BME280;54614;47.576;7.524;2022-11-02T05:08:49;99259.00;;;28.25;37.71
67818;BME280;54614;47.576;7.524;2022-11-02T05:11:15;99263.13;;;28.52;37.84
67818;BME280;54614;47.576;7.524;2022-11-02T05:13:41;99257.13;;;28.50;37.69
67818;BME280;54614;47.576;7.524;2022-11-02T05:16:13;99260.03;;;28.24;37.86
67818;BME280;54614;47.576;7.524;2022-11-02T05:18:39;99255.63;;;28.30;37.81
67818;BME280;54614;47.576;7.524;2022-11-02T05:21:05;99262.38;;;28.14;38.21
67818;BME280;54614;47.576;7.524;2022-11-02T05:23:31;99271.91;;;27.85;38.36
67818;BME280;54614;47.576;7.524;2022-11-02T05:26:04;99271.81;;;27.67;38.90
67818;BME280;54614;47.576;7.524;2022-11-02T05:28:32;99276.97;;;27.75;38.65
67818;BME280;54614;47.576;7.524;2022-11-02T05:31:00;99271.75;;;27.80;38.44
67818;BME280;54614;47.576;7.524;2022-11-02T05:33:30;99268.69;;;28.01;38.36
67818;BME280;54614;47.576;7.524;2022-11-02T05:35:58;99273.84;;;28.09;38.18
67818;BME280;54614;47.576;7.524;2022-11-02T05:38:24;99271.38;;;28.39;37.72
67818;BME280;54614;47.576;7.524;2022-11-02T05:40:58;99278.88;;;28.37;37.87
67818;BME280;54614;47.576;7.524;2022-11-02T05:43:25;99282.38;;;28.44;37.47
67818;BME280;54614;47.576;7.524;2022-11-02T05:45:56;99276.19;;;28.37;37.73
67818;BME280;54614;47.576;7.524;2022-11-02T05:48:24;99276.72;;;28.14;38.37
67818;BME280;54614;47.576;7.524;2022-11-02T05:50:56;99287.59;;;28.39;37.90
67818;BME280;54614;47.576;7.524;2022-11-02T05:53:24;99283.84;;;28.65;37.59
67818;BME280;54614;47.576;7.524;2022-11-02T05:55:50;99282.81;;;28.41;38.22
67818;BME280;54614;47.576;7.524;2022-11-02T05:58:17;99288.47;;;28.02;38.99
67818;BME280;54614;47.576;7.524;2022-11-02T06:00:42;99289.13;;;28.29;38.30
67818;BME280;54614;47.576;7.524;2022-11-02T06:03:08;99293.38;;;28.11;38.67
67818;BME280;54614;47.576;7.524;2022-11-02T06:05:34;99283.97;;;28.20;38.50
67818;BME280;54614;47.576;7.524;2022-11-02T06:08:01;99288.50;;;27.95;38.86
67818;BME280;54614;47.576;7.524;2022-11-02T06:10:29;99305.84;;;27.81;38.97
67818;BME280;54614;47.576;7.524;2022-11-02T06:13:01;99304.31;;;28.30;38.12
67818;BME280;54614;47.576;7.524;2022-11-02T06:15:29;99304.66;;;28.40;37.80
67818;BME280;54614;47.576;7.524;2022-11-02T06:17:56;99309.31;;;27.95;39.16
67818;BME280;54614;47.576;7.524;2022-11-02T06:20:22;99318.03;;;27.97;38.41
67818;BME280;54614;47.576;7.524;2022-11-02T06:22:48;99319.53;;;27.86;38.46
67818;BME280;54614;47.576;7.524;2022-11-02T06:25:15;99323.56;;;27.70;38.67
67818;BME280;54614;47.576;7.524;2022-11-02T06:27:49;99336.44;;;27.75;38.41
67818;BME280;54614;47.576;7.524;2022-11-02T06:30:15;99332.47;;;27.77;38.22
67818;BME280;54614;47.576;7.524;2022-11-02T06:32:46;99338.53;;;27.66;38.38
67818;BME280;54614;47.576;7.524;2022-11-02T06:35:13;99339.47;;;27.91;38.14
67818;BME280;54614;47.576;7.524;2022-11-02T06:37:39;99343.22;;;27.90;38.12
67818;BME280;54614;47.576;7.524;2022-11-02T06:40:05;99345.19;;;27.70;38.19
67818;BME280;54614;47.576;7.524;2022-11-02T06:42:31;99354.97;;;27.58;38.31
67818;BME280;54614;47.576;7.524;2022-11-02T06:44:57;99351.88;;;27.48;38.89
67818;BME280;54614;47.576;7.524;2022-11-02T06:47:35;99353.09;;;27.58;38.12
67818;BME280;54614;47.576;7.524;2022-11-02T06:50:03;99361.13;;;27.85;38.05
67818;BME280;54614;47.576;7.524;2022-11-02T06:52:29;99374.09;;;27.70;39.16
67818;BME280;54614;47.576;7.524;2022-11-02T06:54:55;99373.28;;;27.56;39.04
67818;BME280;54614;47.576;7.524;2022-11-02T06:57:22;99368.47;;;27.71;38.68
67818;BME280;54614;47.576;7.524;2022-11-02T06:59:48;99367.56;;;27.90;38.50
67818;BME280;54614;47.576;7.524;2022-11-02T07:02:14;99368.59;;;28.34;39.88
67818;BME280;54614;47.576;7.524;2022-11-02T07:04:39;99371.53;;;28.33;40.16
67818;BME280;54614;47.576;7.524;2022-11-02T07:07:05;99372.47;;;28.83;38.32
67818;BME280;54614;47.576;7.524;2022-11-02T07:09:31;99380.47;;;28.33;38.15
67818;BME280;54614;47.576;7.524;2022-11-02T07:11:57;99373.91;;;28.54;37.18
67818;BME280;54614;47.576;7.524;2022-11-02T07:14:23;99385.31;;;28.24;36.90
67818;BME280;54614;47.576;7.524;2022-11-02T07:16:49;99391.53;;;27.80;33.14
67818;BME280;54614;47.576;7.524;2022-11-02T07:19:15;99390.25;;;28.34;34.57
67818;BME280;54614;47.576;7.524;2022-11-02T07:21:41;99393.91;;;28.08;34.49
67818;BME280;54614;47.576;7.524;2022-11-02T07:24:07;99391.56;;;28.18;34.51
67818;BME280;54614;47.576;7.524;2022-11-02T07:26:33;99397.75;;;28.32;34.46
67818;BME280;54614;47.576;7.524;2022-11-02T07:28:58;99394.84;;;28.34;34.68
67818;BME280;54614;47.576;7.524;2022-11-02T07:31:24;99402.06;;;28.46;34.39
67818;BME280;54614;47.576;7.524;2022-11-02T07:33:50;99410.59;;;28.43;34.46
67818;BME280;54614;47.576;7.524;2022-11-02T07:36:16;99406.50;;;28.34;34.57
67818;BME280;54614;47.576;7.524;2022-11-02T07:38:41;99411.06;;;28.34;34.74
67818;BME280;54614;47.576;7.524;2022-11-02T07:41:08;99411.50;;;28.31;34.99
67818;BME280;54614;47.576;7.524;2022-11-02T07:43:34;99410.50;;;28.18;35.90
67818;BME280;54614;47.576;7.524;2022-11-02T07:46:02;99411.75;;;28.22;36.61
67818;BME280;54614;47.576;7.524;2022-11-02T07:48:28;99410.91;;;28.22;35.70
67818;BME280;54614;47.576;7.524;2022-11-02T07:50:57;99408.38;;;28.34;34.84
67818;BME280;54614;47.576;7.524;2022-11-02T07:53:24;99409.84;;;28.30;35.13
67818;BME280;54614;47.576;7.524;2022-11-02T07:55:50;99413.81;;;28.27;35.67
67818;BME280;54614;47.576;7.524;2022-11-02T07:58:15;99417.06;;;28.42;34.98
67818;BME280;54614;47.576;7.524;2022-11-02T08:00:42;99412.31;;;28.38;35.18
67818;BME280;54614;47.576;7.524;2022-11-02T08:03:10;99420.25;;;28.33;35.28
67818;BME280;54614;47.576;7.524;2022-11-02T08:05:39;99424.41;;;28.29;35.59
67818;BME280;54614;47.576;7.524;2022-11-02T08:10:36;99430.63;;;28.36;35.51
67818;BME280;54614;47.576;7.524;2022-11-02T08:13:02;99434.00;;;28.24;35.76
67818;BME280;54614;47.576;7.524;2022-11-02T08:15:28;99431.06;;;28.33;35.73
67818;BME280;54614;47.576;7.524;2022-11-02T08:18:11;99434.84;;;28.18;36.39
67818;BME280;54614;47.576;7.524;2022-11-02T08:20:38;99433.16;;;28.31;35.86
67818;BME280;54614;47.576;7.524;2022-11-02T08:23:04;99434.41;;;28.28;36.28
67818;BME280;54614;47.576;7.524;2022-11-02T08:25:33;99429.25;;;28.13;38.34
67818;BME280;54614;47.576;7.524;2022-11-02T08:27:59;99433.16;;;28.31;40.51
67818;BME280;54614;47.576;7.524;2022-11-02T08:30:27;99433.50;;;28.41;38.64
67818;BME280;54614;47.576;7.524;2022-11-02T08:32:54;99431.78;;;28.53;37.56
67818;BME280;54614;47.576;7.524;2022-11-02T08:35:20;99432.91;;;28.39;37.96
67818;BME280;54614;47.576;7.524;2022-11-02T08:37:56;99430.00;;;28.34;38.09
67818;BME280;54614;47.576;7.524;2022-11-02T08:40:25;99427.88;;;28.42;37.89
67818;BME280;54614;47.576;7.524;2022-11-02T08:42:59;99423.78;;;28.65;37.28
67818;BME280;54614;47.576;7.524;2022-11-02T08:45:26;99427.03;;;28.48;37.50
67818;BME280;54614;47.576;7.524;2022-11-02T08:47:53;99423.75;;;28.71;37.04
67818;BME280;54614;47.576;7.524;2022-11-02T08:50:20;99427.91;;;28.74;37.18
67818;BME280;54614;47.576;7.524;2022-11-02T08:52:46;99425.34;;;28.85;36.87
67818;BME280;54614;47.576;7.524;2022-11-02T08:55:12;99428.63;;;28.56;36.95
67818;BME280;54614;47.576;7.524;2022-11-02T08:57:53;99430.22;;;28.70;36.69
67818;BME280;54614;47.576;7.524;2022-11-02T09:00:25;99425.41;;;28.72;36.52
67818;BME280;54614;47.576;7.524;2022-11-02T09:05:29;99433.22;;;28.55;36.75
67818;BME280;54614;47.576;7.524;2022-11-02T09:08:06;99424.31;;;28.80;36.27
67818;BME280;54614;47.576;7.524;2022-11-02T09:10:35;99424.03;;;28.25;37.15
67818;BME280;54614;47.576;7.524;2022-11-02T09:13:05;99438.38;;;28.26;37.15
67818;BME280;54614;47.576;7.524;2022-11-02T09:15:34;99427.13;;;28.22;37.04
67818;BME280;54614;47.576;7.524;2022-11-02T09:18:00;99422.53;;;28.29;37.10
67818;BME280;54614;47.576;7.524;2022-11-02T09:20:26;99422.25;;;28.44;36.78
67818;BME280;54614;47.576;7.524;2022-11-02T09:22:52;99422.50;;;28.36;37.33
67818;BME280;54614;47.576;7.524;2022-11-02T09:25:18;99424.53;;;28.47;37.10
67818;BME280;54614;47.576;7.524;2022-11-02T09:27:44;99423.00;;;28.58;36.62
67818;BME280;54614;47.576;7.524;2022-11-02T09:30:12;99425.22;;;28.36;37.00
67818;BME280;54614;47.576;7.524;2022-11-02T09:32:38;99420.38;;;28.44;37.38
67818;BME280;54614;47.576;7.524;2022-11-02T09:35:10;99412.13;;;28.64;36.55
67818;BME280;54614;47.576;7.524;2022-11-02T09:37:37;99405.75;;;28.07;37.60
67818;BME280;54614;47.576;7.524;2022-11-02T09:40:06;99405.16;;;28.05;37.42
67818;BME280;54614;47.576;7.524;2022-11-02T09:43:08;99406.75;;;28.26;37.49
67818;BME280;54614;47.576;7.524;2022-11-02T09:45:57;99405.06;;;28.32;37.44
67818;BME280;54614;47.576;7.524;2022-11-02T09:48:35;99400.28;;;28.20;37.39
67818;BME280;54614;47.576;7.524;2022-11-02T09:51:15;99401.66;;;27.98;37.92
67818;BME280;54614;47.576;7.524;2022-11-02T09:56:34;99402.75;;;28.35;38.15
67818;BME280;54614;47.576;7.524;2022-11-02T10:01:53;99404.03;;;28.19;37.29
67818;BME280;54614;47.576;7.524;2022-11-02T10:10:13;99380.88;;;28.68;37.65
67818;BME280;54614;47.576;7.524;2022-11-02T10:15:50;99380.09;;;28.61;37.87
67818;BME280;54614;47.576;7.524;2022-11-02T10:18:27;99377.06;;;28.76;37.46
67818;BME280;54614;47.576;7.524;2022-11-02T10:21:00;99383.66;;;28.55;38.00
67818;BME280;54614;47.576;7.524;2022-11-02T10:23:38;99374.34;;;28.76;37.52
67818;BME280;54614;47.576;7.524;2022-11-02T10:26:05;99378.91;;;28.50;37.80
67818;BME280;54614;47.576;7.524;2022-11-02T10:28:39;99377.88;;;28.51;37.85
67818;BME280;54614;47.576;7.524;2022-11-02T10:31:24;99364.69;;;28.62;37.29
67818;BME280;54614;47.576;7.524;2022-11-02T10:33:54;99372.88;;;28.10;37.79
67818;BME280;54614;47.576;7.524;2022-11-02T10:36:45;99374.69;;;27.78;38.25
67818;BME280;54614;47.576;7.524;2022-11-02T10:42:09;99372.44;;;27.62;38.85
67818;BME280;54614;47.576;7.524;2022-11-02T10:51:13;99367.22;;;27.67;38.52
67818;BME280;54614;47.576;7.524;2022-11-02T10:53:45;99365.78;;;27.65;38.75
67818;BME280;54614;47.576;7.524;2022-11-02T10:56:19;99364.31;;;27.69;38.51
67818;BME280;54614;47.576;7.524;2022-11-02T10:59:03;99356.63;;;27.66;38.63
67818;BME280;54614;47.576;7.524;2022-11-02T11:01:34;99357.41;;;27.79;38.69
67818;BME280;54614;47.576;7.524;2022-11-02T11:04:03;99358.25;;;27.80;38.49
67818;BME280;54614;47.576;7.524;2022-11-02T11:06:36;99343.94;;;27.73;38.58
67818;BME280;54614;47.576;7.524;2022-11-02T11:09:12;99348.25;;;27.80;38.56
67818;BME280;54614;47.576;7.524;2022-11-02T11:11:40;99347.63;;;27.85;38.70
67818;BME280;54614;47.576;7.524;2022-11-02T11:14:17;99345.63;;;27.60;38.52
67818;BME280;54614;47.576;7.524;2022-11-02T11:16:57;99339.81;;;27.64;38.75
67818;BME280;54614;47.576;7.524;2022-11-02T11:19:34;99331.06;;;27.55;38.92
67818;BME280;54614;47.576;7.524;2022-11-02T11:31:01;99326.78;;;27.92;38.32
67818;BME280;54614;47.576;7.524;2022-11-02T11:33:29;99315.75;;;27.93;38.02
67818;BME280;54614;47.576;7.524;2022-11-02T11:35:56;99329.19;;;28.07;37.77
67818;BME280;54614;47.576;7.524;2022-11-02T11:38:24;99316.25;;;28.15;37.66
67818;BME280;54614;47.576;7.524;2022-11-02T11:40:57;99311.00;;;28.20;37.63
67818;BME280;54614;47.576;7.524;2022-11-02T11:43:27;99308.50;;;28.57;37.04
67818;BME280;54614;47.576;7.524;2022-11-02T11:46:03;99297.22;;;28.35;37.39
67818;BME280;54614;47.576;7.524;2022-11-02T11:48:55;99302.31;;;28.50;37.16
67818;BME280;54614;47.576;7.524;2022-11-02T11:51:39;99303.66;;;28.34;37.30
67818;BME280;54614;47.576;7.524;2022-11-02T11:56:59;99290.44;;;28.51;37.07
67818;BME280;54614;47.576;7.524;2022-11-02T11:59:46;99288.44;;;28.65;36.57
67818;BME280;54614;47.576;7.524;2022-11-02T12:02:34;99290.09;;;28.91;36.00
67818;BME280;54614;47.576;7.524;2022-11-02T12:05:15;99284.56;;;28.79;36.35
67818;BME280;54614;47.576;7.524;2022-11-02T12:08:04;99277.25;;;28.86;36.37
67818;BME280;54614;47.576;7.524;2022-11-02T12:25:24;99265.06;;;28.45;37.08
67818;BME280;54614;47.576;7.524;2022-11-02T12:36:33;99244.97;;;28.60;36.77
67818;BME280;54614;47.576;7.524;2022-11-02T12:40:00;99254.34;;;28.57;36.97
67818;BME280;54614;47.576;7.524;2022-11-02T12:42:28;99247.50;;;28.54;37.09
67818;BME280;54614;47.576;7.524;2022-11-02T12:48:02;99235.19;;;28.59;36.55
67818;BME280;54614;47.576;7.524;2022-11-02T12:50:56;99238.72;;;28.34;37.19
67818;BME280;54614;47.576;7.524;2022-11-02T12:54:00;99239.19;;;28.31;37.07
67818;BME280;54614;47.576;7.524;2022-11-02T12:56:41;99236.69;;;28.30;37.25
67818;BME280;54614;47.576;7.524;2022-11-02T12:59:29;99238.84;;;28.14;37.69
67818;BME280;54614;47.576;7.524;2022-11-02T13:02:26;99232.34;;;28.22;37.50
67818;BME280;54614;47.576;7.524;2022-11-02T13:05:08;99219.31;;;28.12;37.40
67818;BME280;54614;47.576;7.524;2022-11-02T13:08:27;99225.00;;;28.04;37.61
67818;BME280;54614;47.576;7.524;2022-11-02T13:11:00;99218.97;;;28.02;37.72
67818;BME280;54614;47.576;7.524;2022-11-02T13:13:43;99213.47;;;27.84;38.20
67818;BME280;54614;47.576;7.524;2022-11-02T13:16:10;99213.31;;;27.79;38.34
67818;BME280;54614;47.576;7.524;2022-11-02T13:18:47;99214.69;;;27.88;37.91
67818;BME280;54614;47.576;7.524;2022-11-02T13:21:32;99204.72;;;27.88;37.84
67818;BME280;54614;47.576;7.524;2022-11-02T13:24:00;99209.50;;;27.86;38.06
67818;BME280;54614;47.576;7.524;2022-11-02T13:26:34;99203.66;;;27.89;37.81
67818;BME280;54614;47.576;7.524;2022-11-02T13:29:38;99202.22;;;27.87;38.05
67818;BME280;54614;47.576;7.524;2022-11-02T13:32:37;99200.47;;;27.99;37.94
67818;BME280;54614;47.576;7.524;2022-11-02T13:35:31;99198.25;;;27.89;38.27
67818;BME280;54614;47.576;7.524;2022-11-02T13:50:30;99190.81;;;27.85;38.32
67818;BME280;54614;47.576;7.524;2022-11-02T13:53:03;99180.19;;;28.15;37.89
67818;BME280;54614;47.576;7.524;2022-11-02T13:55:55;99188.97;;;28.10;37.97
67818;BME280;54614;47.576;7.524;2022-11-02T13:58:39;99186.59;;;28.20;37.77
67818;BME280;54614;47.576;7.524;2022-11-02T14:01:10;99186.56;;;27.96;38.50
67818;BME280;54614;47.576;7.524;2022-11-02T14:06:14;99182.59;;;27.98;38.45
67818;BME280;54614;47.576;7.524;2022-11-02T14:08:55;99181.72;;;28.04;38.06
67818;BME280;54614;47.576;7.524;2022-11-02T14:38:14;99152.19;;;28.03;38.42
67818;BME280;54614;47.576;7.524;2022-11-02T14:47:09;99152.94;;;27.53;39.16
67818;BME280;54614;47.576;7.524;2022-11-02T14:52:34;99150.69;;;27.82;38.75
67818;BME280;54614;47.576;7.524;2022-11-02T14:55:25;99152.28;;;27.89;38.85
67818;BME280;54614;47.576;7.524;2022-11-02T15:00:56;99152.53;;;27.88;38.65
67818;BME280;54614;47.576;7.524;2022-11-02T15:11:56;99138.38;;;27.54;39.13
67818;BME280;54614;47.576;7.524;2022-11-02T15:19:44;99139.09;;;27.75;39.05
67818;BME280;54614;47.576;7.524;2022-11-02T15:25:41;99132.81;;;27.81;38.96
67818;BME280;54614;47.576;7.524;2022-11-02T15:28:20;99129.38;;;27.67;39.02
67818;BME280;54614;47.576;7.524;2022-11-02T15:30:55;99123.94;;;27.74;39.19
67818;BME280;54614;47.576;7.524;2022-11-02T15:33:44;99131.22;;;27.98;38.79
67818;BME280;54614;47.576;7.524;2022-11-02T15:36:35;99123.59;;;27.64;39.01
67818;BME280;54614;47.576;7.524;2022-11-02T15:39:06;99123.59;;;27.57;38.94
67818;BME280;54614;47.576;7.524;2022-11-02T15:42:10;99127.56;;;27.54;39.06
67818;BME280;54614;47.576;7.524;2022-11-02T15:54:12;99116.97;;;27.53;39.47
67818;BME280;54614;47.576;7.524;2022-11-02T15:56:58;99103.63;;;27.58;39.37
67818;BME280;54614;47.576;7.524;2022-11-02T16:00:04;99107.66;;;27.49;39.94
67818;BME280;54614;47.576;7.524;2022-11-02T16:02:51;99112.84;;;27.50;39.15
67818;BME280;54614;47.576;7.524;2022-11-02T16:05:23;99106.31;;;27.65;38.56
67818;BME280;54614;47.576;7.524;2022-11-02T16:07:56;99097.19;;;27.90;37.88
67818;BME280;54614;47.576;7.524;2022-11-02T16:10:33;99099.38;;;28.00;37.83
67818;BME280;54614;47.576;7.524;2022-11-02T16:13:20;99092.88;;;27.83;38.04
67818;BME280;54614;47.576;7.524;2022-11-02T16:15:48;99080.41;;;27.82;37.88
67818;BME280;54614;47.576;7.524;2022-11-02T16:18:42;99085.69;;;27.70;38.32
67818;BME280;54614;47.576;7.524;2022-11-02T16:21:14;99084.88;;;27.95;37.44